Time;durP1;ratioP1;P1;durP2;ratioP2;P2;SDS_P1;SDS_P2;PMS_P1;PMS_P2;Temp;Humidity;BMP_temperature;BMP_pressure;BME280_temperature;BME280_humidity;BME280_pressure;Samples;Min_cycle;Max_cycle;Signal;HPM_P1;HPM_P2
2022/07/22 00:01:31;;;;;;;23.38;19.67;;;;;;;;;;10045435;28;20507;-66
2022/07/22 00:06:27;;;;;;;22.75;18.50;;;;;;;;;;10055573;28;20071;-66
2022/07/22 00:11:23;;;;;;;22.77;18.80;;;;;;;;;;10036679;28;20091;-66
2022/07/22 00:16:20;;;;;;;23.98;19.30;;;;;;;;;;10053330;28;20479;-66
2022/07/22 00:21:16;;;;;;;24.10;19.73;;;;;;;;;;10036108;28;20048;-66
2022/07/22 00:26:12;;;;;;;27.23;20.02;;;;;;;;;;10036554;28;20047;-66
2022/07/22 00:31:09;;;;;;;28.25;20.52;;;;;;;;;;10036107;28;20556;-66
2022/07/22 00:36:06;;;;;;;31.20;21.88;;;;;;;;;;10060309;28;20051;-66
2022/07/22 00:41:02;;;;;;;30.08;19.73;;;;;;;;;;10065682;28;20044;-66
2022/07/22 00:45:58;;;;;;;29.52;19.05;;;;;;;;;;10059063;28;20105;-66
2022/07/22 00:50:56;;;;;;;24.80;16.85;;;;;;;;;;10053108;28;20051;-66
2022/07/22 00:55:52;;;;;;;20.50;14.45;;;;;;;;;;10058154;28;20074;-66
2022/07/22 01:00:48;;;;;;;12.70;8.93;;;;;;;;;;10047213;28;20122;-66
2022/07/22 01:05:45;;;;;;;11.68;7.53;;;;;;;;;;10062883;28;20043;-66
2022/07/22 01:10:41;;;;;;;10.52;6.25;;;;;;;;;;10042501;28;20469;-66
2022/07/22 01:15:37;;;;;;;8.35;5.32;;;;;;;;;;10046403;28;20209;-66
2022/07/22 01:20:34;;;;;;;5.10;2.83;;;;;;;;;;10041854;28;20123;-66
2022/07/22 01:25:30;;;;;;;5.60;2.53;;;;;;;;;;10061409;28;20130;-66
2022/07/22 01:30:28;;;;;;;5.15;2.40;;;;;;;;;;10080950;28;20055;-66
2022/07/22 01:35:24;;;;;;;7.00;3.22;;;;;;;;;;10061797;28;20067;-66
2022/07/22 01:40:20;;;;;;;4.82;2.47;;;;;;;;;;10070121;28;20083;-66
2022/07/22 01:45:17;;;;;;;6.72;3.05;;;;;;;;;;10058943;28;20074;-66
2022/07/22 01:50:13;;;;;;;7.68;4.03;;;;;;;;;;10080159;28;20536;-66
2022/07/22 01:55:09;;;;;;;10.80;5.07;;;;;;;;;;10080087;28;20146;-67
2022/07/22 02:00:07;;;;;;;16.00;6.15;;;;;;;;;;10041736;28;20059;-67
2022/07/22 02:05:07;;;;;;;14.25;7.28;;;;;;;;;;10057309;28;20130;-65
2022/07/22 02:10:04;;;;;;;19.45;9.25;;;;;;;;;;10050002;28;20083;-66
2022/07/22 02:15:00;;;;;;;17.27;7.53;;;;;;;;;;10048294;29;20127;-66
2022/07/22 02:19:56;;;;;;;16.10;6.70;;;;;;;;;;10040280;28;20122;-66
2022/07/22 02:24:53;;;;;;;17.13;6.15;;;;;;;;;;10055682;28;20558;-66
2022/07/22 02:29:49;;;;;;;17.20;5.47;;;;;;;;;;10078486;28;20062;-66
2022/07/22 02:34:45;;;;;;;11.35;4.25;;;;;;;;;;10066538;28;20126;-66
2022/07/22 02:39:41;;;;;;;10.63;4.03;;;;;;;;;;10078295;28;20040;-66
2022/07/22 02:44:38;;;;;;;13.90;3.30;;;;;;;;;;10062236;28;20585;-66
2022/07/22 02:49:34;;;;;;;13.38;3.40;;;;;;;;;;10078066;28;20130;-66
2022/07/22 02:54:30;;;;;;;8.68;2.67;;;;;;;;;;10055912;28;20143;-66
2022/07/22 02:59:27;;;;;;;9.48;3.40;;;;;;;;;;10077694;28;20681;-66
2022/07/22 03:04:23;;;;;;;7.97;2.20;;;;;;;;;;10054030;28;20086;-67
2022/07/22 03:09:19;;;;;;;12.05;2.58;;;;;;;;;;10076958;28;20485;-66
2022/07/22 03:14:18;;;;;;;13.18;2.75;;;;;;;;;;10076886;28;20505;-66
2022/07/22 03:19:15;;;;;;;9.77;2.53;;;;;;;;;;10073688;28;20122;-66
2022/07/22 03:24:11;;;;;;;10.80;2.40;;;;;;;;;;10046120;28;20062;-66
2022/07/22 03:29:07;;;;;;;8.63;2.03;;;;;;;;;;10057673;28;20082;-66
2022/07/22 03:34:03;;;;;;;17.30;2.85;;;;;;;;;;10045990;28;20070;-66
2022/07/22 03:39:00;;;;;;;11.93;2.50;;;;;;;;;;10047260;28;20123;-66
2022/07/22 03:43:56;;;;;;;8.15;2.00;;;;;;;;;;10039490;28;20051;-67
2022/07/22 03:48:52;;;;;;;7.78;2.03;;;;;;;;;;10036650;28;20051;-66
2022/07/22 03:53:49;;;;;;;7.53;2.30;;;;;;;;;;10043205;28;20065;-67
2022/07/22 03:58:46;;;;;;;12.95;2.67;;;;;;;;;;10075215;28;22293;-66
2022/07/22 04:03:42;;;;;;;9.13;2.20;;;;;;;;;;10050239;28;20590;-66
2022/07/22 04:08:38;;;;;;;12.45;2.22;;;;;;;;;;10074126;28;20126;-66
2022/07/22 04:13:35;;;;;;;9.57;2.38;;;;;;;;;;10040793;28;20094;-66
2022/07/22 04:18:31;;;;;;;8.13;2.30;;;;;;;;;;10040549;28;20135;-66
2022/07/22 04:23:28;;;;;;;8.70;2.40;;;;;;;;;;10039352;28;20122;-66
2022/07/22 04:28:24;;;;;;;11.25;2.50;;;;;;;;;;10048142;28;20482;-66
2022/07/22 04:33:20;;;;;;;4.18;1.88;;;;;;;;;;10037907;28;20075;-66
2022/07/22 04:38:17;;;;;;;11.18;3.38;;;;;;;;;;10043191;28;20475;-66
2022/07/22 04:43:13;;;;;;;9.95;2.15;;;;;;;;;;10037553;28;20082;-66
2022/07/22 04:48:10;;;;;;;8.40;2.47;;;;;;;;;;10074585;28;20075;-66
2022/07/22 04:53:06;;;;;;;9.65;2.22;;;;;;;;;;10053442;28;20565;-66
2022/07/22 04:58:04;;;;;;;7.68;1.80;;;;;;;;;;10074196;28;20098;-66
2022/07/22 05:03:00;;;;;;;7.53;2.13;;;;;;;;;;10053189;28;20139;-66
2022/07/22 05:07:56;;;;;;;5.93;1.92;;;;;;;;;;10073444;28;20063;-66
2022/07/22 05:12:53;;;;;;;7.35;2.25;;;;;;;;;;10039384;28;20151;-66
2022/07/22 05:17:49;;;;;;;6.78;2.40;;;;;;;;;;10068655;28;20047;-66
2022/07/22 05:22:45;;;;;;;9.57;2.55;;;;;;;;;;10035815;28;20052;-66
2022/07/22 05:27:51;;;;;;;11.10;2.63;;;;;;;;;;10051562;28;20590;-66
2022/07/22 05:32:47;;;;;;;13.32;2.92;;;;;;;;;;10035235;28;20087;-66
2022/07/22 05:37:44;;;;;;;12.25;3.08;;;;;;;;;;10035568;28;20083;-67
2022/07/22 05:42:40;;;;;;;14.00;3.05;;;;;;;;;;10035115;28;20072;-67
2022/07/22 05:47:36;;;;;;;11.13;2.90;;;;;;;;;;10037545;28;20102;-66
2022/07/22 05:52:35;;;;;;;8.80;2.92;;;;;;;;;;10041800;28;20075;-66
2022/07/22 05:57:31;;;;;;;9.70;2.90;;;;;;;;;;10076317;28;20071;-66
2022/07/22 06:02:28;;;;;;;15.77;3.30;;;;;;;;;;10080661;28;20086;-67
2022/07/22 06:07:26;;;;;;;14.38;3.13;;;;;;;;;;10076306;28;20094;-67
2022/07/22 06:12:22;;;;;;;11.02;2.78;;;;;;;;;;10076595;28;20070;-67
2022/07/22 06:17:18;;;;;;;10.23;2.60;;;;;;;;;;10073611;28;20138;-67
2022/07/22 06:22:17;;;;;;;8.73;2.65;;;;;;;;;;10074163;28;20132;-66
2022/07/22 06:27:13;;;;;;;13.98;2.83;;;;;;;;;;10073189;28;20051;-67
2022/07/22 06:32:09;;;;;;;14.25;2.92;;;;;;;;;;10069057;28;20087;-67
2022/07/22 06:37:06;;;;;;;11.77;3.63;;;;;;;;;;10072010;28;20122;-67
2022/07/22 06:42:02;;;;;;;12.88;3.47;;;;;;;;;;10050224;28;20082;-67
2022/07/22 06:46:58;;;;;;;11.63;3.58;;;;;;;;;;10070770;28;20071;-66
2022/07/22 06:51:55;;;;;;;14.80;4.68;;;;;;;;;;10040421;28;20486;-66
2022/07/22 06:56:51;;;;;;;12.45;3.05;;;;;;;;;;10060885;28;20346;-67
2022/07/22 07:01:47;;;;;;;14.68;4.32;;;;;;;;;;10039123;28;20052;-66
2022/07/22 07:06:44;;;;;;;15.25;3.95;;;;;;;;;;10043296;28;20055;-66
2022/07/22 07:11:41;;;;;;;11.13;2.72;;;;;;;;;;10038860;28;20051;-66
2022/07/22 07:16:38;;;;;;;12.68;3.30;;;;;;;;;;10067356;28;20524;-66
2022/07/22 07:21:34;;;;;;;6.63;2.10;;;;;;;;;;10072645;28;20131;-66
2022/07/22 07:26:31;;;;;;;8.70;2.88;;;;;;;;;;10065625;28;20102;-67
2022/07/22 07:31:27;;;;;;;14.80;2.88;;;;;;;;;;10066971;28;20078;-66
2022/07/22 07:36:23;;;;;;;17.20;2.95;;;;;;;;;;10063903;28;20071;-66
2022/07/22 07:41:20;;;;;;;15.57;3.03;;;;;;;;;;10055964;28;20227;-67
2022/07/22 07:46:16;;;;;;;13.27;2.95;;;;;;;;;;10062677;28;20055;-67
2022/07/22 07:51:12;;;;;;;9.60;2.30;;;;;;;;;;10051497;28;20048;-66
2022/07/22 07:56:09;;;;;;;11.25;2.47;;;;;;;;;;10061993;28;20054;-66
2022/07/22 08:01:06;;;;;;;14.00;3.45;;;;;;;;;;10041907;28;20429;-66
2022/07/22 08:06:03;;;;;;;18.00;3.33;;;;;;;;;;10046565;28;20048;-66
2022/07/22 08:11:00;;;;;;;10.45;2.20;;;;;;;;;;10035453;28;20099;-66
2022/07/22 08:15:57;;;;;;;9.52;3.10;;;;;;;;;;10046261;28;20059;-66
2022/07/22 08:20:54;;;;;;;12.57;2.72;;;;;;;;;;10036268;28;20554;-66
2022/07/22 08:25:50;;;;;;;10.77;2.50;;;;;;;;;;10057834;28;20355;-66
2022/07/22 08:30:47;;;;;;;11.10;2.78;;;;;;;;;;10065184;28;20110;-66
2022/07/22 08:35:43;;;;;;;9.43;2.40;;;;;;;;;;10057445;28;20564;-66
2022/07/22 08:40:39;;;;;;;15.48;3.30;;;;;;;;;;10047934;28;20074;-67
2022/07/22 08:45:36;;;;;;;10.88;2.28;;;;;;;;;;10055156;28;20558;-67
2022/07/22 08:50:32;;;;;;;9.65;2.28;;;;;;;;;;10035664;28;20494;-67
2022/07/22 08:55:28;;;;;;;9.52;2.05;;;;;;;;;;10039234;28;20067;-67
2022/07/22 09:00:25;;;;;;;9.48;2.35;;;;;;;;;;10035357;28;20067;-67
2022/07/22 09:05:21;;;;;;;9.65;1.90;;;;;;;;;;10037232;28;20075;-67
2022/07/22 09:10:37;;;;;;;10.77;2.08;;;;;;;;;;10034621;28;20405;-67
2022/07/22 09:15:40;;;;;;;10.57;1.70;;;;;;;;;;10054996;28;20636;-67
2022/07/22 09:20:36;;;;;;;;;;;;;;;;;;10073940;28;20553;-67
2022/07/22 09:25:34;;;;;;;8.13;1.48;;;;;;;;;;10061784;28;19968;-67
2022/07/22 09:30:31;;;;;;;7.35;1.63;;;;;;;;;;10062880;28;20098;-67
2022/07/22 09:35:28;;;;;;;8.02;2.17;;;;;;;;;;10061579;28;20441;-67
2022/07/22 09:40:30;;;;;;;6.80;1.63;;;;;;;;;;10058621;28;20074;-67
2022/07/22 09:45:27;;;;;;;9.32;2.17;;;;;;;;;;10061042;28;20054;-67
2022/07/22 09:50:25;;;;;;;9.90;2.50;;;;;;;;;;10043686;28;20051;-67
2022/07/22 09:55:22;;;;;;;9.15;1.85;;;;;;;;;;10056594;28;20075;-68
2022/07/22 10:00:20;;;;;;;7.50;1.75;;;;;;;;;;10040944;28;20106;-68
2022/07/22 10:05:18;;;;;;;10.73;2.05;;;;;;;;;;10052073;28;20084;-68
2022/07/22 10:10:15;;;;;;;4.57;1.30;;;;;;;;;;10040154;28;20090;-67
2022/07/22 10:15:12;;;;;;;6.70;2.28;;;;;;;;;;10043779;28;20044;-68
2022/07/22 10:20:10;;;;;;;9.18;1.92;;;;;;;;;;10040463;28;20051;-68
2022/07/22 10:25:08;;;;;;;8.75;2.30;;;;;;;;;;10069331;28;20082;-67
2022/07/22 10:30:04;;;;;;;11.80;1.98;;;;;;;;;;10074591;28;20131;-67
2022/07/22 10:35:01;;;;;;;5.80;1.60;;;;;;;;;;10055672;29;20458;-67
2022/07/22 10:40:10;;;;;;;14.32;1.83;;;;;;;;;;10068404;28;20060;-67
2022/07/22 10:45:10;;;;;;;8.98;1.52;;;;;;;;;;10055794;28;20058;-67
2022/07/22 10:50:25;;;;;;;9.65;1.77;;;;;;;;;;10064969;28;20142;-67
2022/07/22 10:55:21;;;;;;;5.65;1.35;;;;;;;;;;10057329;28;20054;-67
2022/07/22 11:00:18;;;;;;;7.30;1.92;;;;;;;;;;10047122;28;20486;-68
2022/07/22 11:05:14;;;;;;;8.57;1.88;;;;;;;;;;10056825;28;20703;-67
2022/07/22 11:10:14;;;;;;;8.30;1.60;;;;;;;;;;10047382;28;20517;-68
2022/07/22 11:15:15;;;;;;;8.38;1.95;;;;;;;;;;10052437;28;20079;-69
2022/07/22 11:20:12;;;;;;;6.32;1.65;;;;;;;;;;10038609;28;20561;-68
2022/07/22 11:25:09;;;;;;;8.75;1.85;;;;;;;;;;10049985;28;20283;-68
2022/07/22 11:30:06;;;;;;;7.00;1.50;;;;;;;;;;10038224;28;20047;-68
2022/07/22 11:35:03;;;;;;;8.68;2.08;;;;;;;;;;10053743;28;20515;-69
2022/07/22 11:40:01;;;;;;;6.70;1.60;;;;;;;;;;10076799;28;20083;-69
2022/07/22 11:44:57;;;;;;;5.43;1.70;;;;;;;;;;10053530;29;20078;-68
2022/07/22 11:49:53;;;;;;;5.78;1.42;;;;;;;;;;10076099;28;20066;-69
2022/07/22 11:54:50;;;;;;;7.35;1.40;;;;;;;;;;10054182;28;20531;-68
2022/07/22 11:59:46;;;;;;;9.50;1.92;;;;;;;;;;10075120;28;20417;-68
2022/07/22 12:04:45;;;;;;;9.13;2.97;;;;;;;;;;10075628;28;20688;-69
2022/07/22 12:09:42;;;;;;;5.68;1.70;;;;;;;;;;10053553;28;20448;-68
2022/07/22 12:14:44;;;;;;;10.63;2.47;;;;;;;;;;10049321;28;20054;-68
2022/07/22 12:19:43;;;;;;;5.47;1.38;;;;;;;;;;10043801;28;20052;-69
2022/07/22 12:24:41;;;;;;;7.68;1.83;;;;;;;;;;10048856;28;20074;-69
2022/07/22 12:29:37;;;;;;;10.25;1.80;;;;;;;;;;10074409;28;20167;-68
2022/07/22 12:34:33;;;;;;;5.70;1.58;;;;;;;;;;10067871;28;20102;-69
2022/07/22 12:39:30;;;;;;;7.68;2.53;;;;;;;;;;10034919;28;20078;-68
2022/07/22 12:44:26;;;;;;;6.47;1.70;;;;;;;;;;10038799;28;20518;-68
2022/07/22 12:49:30;;;;;;;5.05;1.40;;;;;;;;;;10035426;28;20114;-69
2022/07/22 12:54:26;;;;;;;5.10;1.60;;;;;;;;;;10046995;28;20126;-68
2022/07/22 12:59:22;;;;;;;5.32;1.48;;;;;;;;;;10081889;28;20047;-68
2022/07/22 13:04:19;;;;;;;9.20;1.60;;;;;;;;;;10068609;28;20690;-68
2022/07/22 13:09:15;;;;;;;5.78;1.40;;;;;;;;;;10081569;28;20175;-68
2022/07/22 13:14:14;;;;;;;5.88;1.67;;;;;;;;;;10053883;28;20051;-69
2022/07/22 13:19:10;;;;;;;8.32;1.58;;;;;;;;;;10067599;28;20063;-69
2022/07/22 13:24:07;;;;;;;10.43;2.20;;;;;;;;;;10050884;28;20054;-68
2022/07/22 13:29:03;;;;;;;5.80;1.52;;;;;;;;;;10052111;28;20147;-68
2022/07/22 13:33:59;;;;;;;2.92;1.50;;;;;;;;;;10047900;28;20075;-69
2022/07/22 13:38:56;;;;;;;9.70;1.92;;;;;;;;;;10041370;28;20051;-68
2022/07/22 13:43:53;;;;;;;6.32;1.70;;;;;;;;;;10048994;28;20081;-68
2022/07/22 13:48:52;;;;;;;7.82;1.88;;;;;;;;;;10080229;28;20058;-68
2022/07/22 13:53:49;;;;;;;5.70;1.60;;;;;;;;;;10055881;28;20661;-68
2022/07/22 13:58:45;;;;;;;7.88;1.70;;;;;;;;;;10072357;28;20875;-68
2022/07/22 14:03:41;;;;;;;5.45;1.48;;;;;;;;;;10046242;28;20079;-68
2022/07/22 14:08:38;;;;;;;5.95;1.92;;;;;;;;;;10063182;28;20044;-68
2022/07/22 14:13:36;;;;;;;6.82;1.70;;;;;;;;;;10045313;28;20035;-68
2022/07/22 14:18:35;;;;;;;7.80;1.70;;;;;;;;;;10063584;28;20140;-68
2022/07/22 14:23:32;;;;;;;8.38;1.70;;;;;;;;;;10044414;28;20536;-68
2022/07/22 14:28:29;;;;;;;5.78;2.13;;;;;;;;;;10062404;28;20095;-68
2022/07/22 14:33:31;;;;;;;4.47;1.63;;;;;;;;;;10043657;28;20078;-68
2022/07/22 14:38:28;;;;;;;6.05;1.60;;;;;;;;;;10054739;28;20051;-68
2022/07/22 14:43:24;;;;;;;5.47;1.33;;;;;;;;;;10042819;28;20074;-68
2022/07/22 14:48:33;;;;;;;4.40;1.40;;;;;;;;;;10044494;28;20048;-68
2022/07/22 14:53:30;;;;;;;4.55;1.98;;;;;;;;;;10043364;28;20047;-69
2022/07/22 14:58:26;;;;;;;6.82;1.80;;;;;;;;;;10041525;28;20147;-68
2022/07/22 15:03:22;;;;;;;5.03;1.95;;;;;;;;;;10040410;28;20098;-69
2022/07/22 15:08:19;;;;;;;7.22;2.03;;;;;;;;;;10037992;28;20044;-68
2022/07/22 15:13:15;;;;;;;7.22;2.08;;;;;;;;;;10040637;28;20087;-68
2022/07/22 15:18:12;;;;;;;8.30;1.80;;;;;;;;;;10076834;28;20478;-68
2022/07/22 15:23:08;;;;;;;7.65;2.00;;;;;;;;;;10061406;28;20048;-68
2022/07/22 15:28:06;;;;;;;6.78;1.80;;;;;;;;;;10076709;28;20122;-69
2022/07/22 15:33:22;;;;;;;7.15;2.63;;;;;;;;;;10042160;28;20163;-69
2022/07/22 15:38:31;;;;;;;4.82;1.83;;;;;;;;;;10076080;28;20772;-69
2022/07/22 15:43:27;;;;;;;6.90;1.92;;;;;;;;;;10041786;28;20051;-68
2022/07/22 15:48:24;;;;;;;14.57;2.15;;;;;;;;;;10075931;28;20505;-68
2022/07/22 15:53:20;;;;;;;3.85;1.65;;;;;;;;;;10041033;28;20099;-68
2022/07/22 16:03:31;;;;;;;6.65;1.95;;;;;;;;;;10040778;28;20110;-68
2022/07/22 16:08:28;;;;;;;6.32;2.30;;;;;;;;;;10073487;28;20078;-68
2022/07/22 16:13:24;;;;;;;3.15;1.40;;;;;;;;;;10039630;28;20047;-68
2022/07/22 16:18:20;;;;;;;4.00;1.63;;;;;;;;;;10074106;28;20051;-69
2022/07/22 16:23:17;;;;;;;3.60;1.23;;;;;;;;;;10074784;28;20130;-68
2022/07/22 16:28:13;;;;;;;7.50;2.30;;;;;;;;;;10048124;28;20127;-68
2022/07/22 16:33:09;;;;;;;6.95;2.20;;;;;;;;;;10036278;28;20059;-68
2022/07/22 16:38:06;;;;;;;5.97;2.15;;;;;;;;;;10038749;28;20055;-69
2022/07/22 16:43:02;;;;;;;3.97;1.90;;;;;;;;;;10036233;28;20138;-68
2022/07/22 16:47:58;;;;;;;4.18;1.55;;;;;;;;;;10035336;28;20459;-68
2022/07/22 16:52:55;;;;;;;5.30;1.60;;;;;;;;;;10035454;28;20655;-68
2022/07/22 16:57:51;;;;;;;5.32;1.67;;;;;;;;;;10072665;28;20122;-68
2022/07/22 17:02:47;;;;;;;4.88;1.63;;;;;;;;;;10045691;28;20469;-68
2022/07/22 17:07:44;;;;;;;5.13;1.55;;;;;;;;;;10071872;28;20086;-69
2022/07/22 17:12:40;;;;;;;3.72;1.80;;;;;;;;;;10042329;28;20075;-69
2022/07/22 17:17:36;;;;;;;4.05;1.60;;;;;;;;;;10064404;28;20131;-68
2022/07/22 17:22:33;;;;;;;4.32;1.65;;;;;;;;;;10035370;28;20544;-68
2022/07/22 17:27:30;;;;;;;6.05;1.88;;;;;;;;;;10057896;28;20135;-68
2022/07/22 17:32:26;;;;;;;5.20;1.52;;;;;;;;;;10035047;28;20071;-68
2022/07/22 17:37:22;;;;;;;5.05;1.70;;;;;;;;;;10045646;28;20522;-68
2022/07/22 17:42:18;;;;;;;5.55;1.52;;;;;;;;;;10035425;28;20066;-68
2022/07/22 17:47:19;;;;;;;7.32;2.13;;;;;;;;;;10047054;28;20051;-68
2022/07/22 17:52:15;;;;;;;10.05;1.98;;;;;;;;;;10041529;28;20082;-69
2022/07/22 17:57:12;;;;;;;7.70;2.03;;;;;;;;;;10073488;28;20122;-68
2022/07/22 18:02:08;;;;;;;9.40;2.50;;;;;;;;;;10073216;28;20103;-68
2022/07/22 18:07:04;;;;;;;6.35;2.20;;;;;;;;;;10073052;28;20607;-68
2022/07/22 18:12:00;;;;;;;8.95;2.58;;;;;;;;;;10068712;28;20438;-68
2022/07/22 18:16:57;;;;;;;5.55;1.90;;;;;;;;;;10071420;28;20536;-68
2022/07/22 18:21:53;;;;;;;5.90;2.20;;;;;;;;;;10054079;28;20043;-68
2022/07/22 18:26:49;;;;;;;6.80;2.50;;;;;;;;;;10070273;28;20720;-68
2022/07/22 18:31:46;;;;;;;9.02;2.17;;;;;;;;;;10041549;28;20056;-68
2022/07/22 18:36:42;;;;;;;5.78;2.15;;;;;;;;;;10066833;28;20059;-68
2022/07/22 18:41:38;;;;;;;8.13;1.75;;;;;;;;;;10039952;28;20047;-68
2022/07/22 18:46:34;;;;;;;6.70;2.17;;;;;;;;;;10051970;28;20071;-68
2022/07/22 18:51:31;;;;;;;3.50;1.48;;;;;;;;;;10038865;28;20059;-68
2022/07/22 18:56:28;;;;;;;4.32;1.38;;;;;;;;;;10044584;28;20062;-68
2022/07/22 19:01:25;;;;;;;3.70;1.20;;;;;;;;;;10039148;28;20047;-68
2022/07/22 19:06:21;;;;;;;2.67;1.05;;;;;;;;;;10041082;28;20576;-68
2022/07/22 19:11:18;;;;;;;6.30;1.23;;;;;;;;;;10038765;28;20060;-68
2022/07/22 19:16:14;;;;;;;5.47;1.50;;;;;;;;;;10063541;28;20130;-68
2022/07/22 19:21:10;;;;;;;4.22;1.45;;;;;;;;;;10066516;28;20052;-67
2022/07/22 19:26:06;;;;;;;4.82;1.60;;;;;;;;;;10062680;28;20496;-68
2022/07/22 19:31:03;;;;;;;5.45;1.40;;;;;;;;;;10076352;28;20505;-68
2022/07/22 19:35:59;;;;;;;4.75;1.63;;;;;;;;;;10074857;28;20069;-68
2022/07/22 19:40:57;;;;;;;7.40;3.00;;;;;;;;;;10037272;28;20043;-68
2022/07/22 19:45:54;;;;;;;6.80;2.08;;;;;;;;;;10058652;28;20643;-68
2022/07/22 19:50:51;;;;;;;7.60;1.98;;;;;;;;;;10037045;28;20048;-68
2022/07/22 19:55:47;;;;;;;5.47;1.83;;;;;;;;;;10042488;28;20135;-68
2022/07/22 20:00:43;;;;;;;6.25;1.52;;;;;;;;;;10036884;28;20502;-68
2022/07/22 20:05:41;;;;;;;8.02;1.70;;;;;;;;;;10056970;28;20130;-68
2022/07/22 20:10:37;;;;;;;4.75;1.70;;;;;;;;;;10072512;28;20047;-68
2022/07/22 20:15:35;;;;;;;3.50;1.50;;;;;;;;;;10056137;28;20130;-68
2022/07/22 20:20:32;;;;;;;4.22;1.30;;;;;;;;;;10054789;28;20075;-68
2022/07/22 20:25:28;;;;;;;5.75;1.35;;;;;;;;;;10055334;28;20126;-68
2022/07/22 20:30:26;;;;;;;7.13;1.85;;;;;;;;;;10042139;28;20051;-68
2022/07/22 20:35:22;;;;;;;5.88;1.23;;;;;;;;;;10053923;28;20086;-68
2022/07/22 20:40:19;;;;;;;4.85;1.10;;;;;;;;;;10043916;28;20558;-68
2022/07/22 20:45:16;;;;;;;4.22;1.10;;;;;;;;;;10053106;28;20082;-68
2022/07/22 20:50:12;;;;;;;4.25;1.40;;;;;;;;;;10074576;28;20055;-69
2022/07/22 20:55:08;;;;;;;5.38;1.58;;;;;;;;;;10070921;28;20132;-68
2022/07/22 21:00:08;;;;;;;5.30;1.95;;;;;;;;;;10035399;28;20080;-68
2022/07/22 21:05:05;;;;;;;4.72;1.55;;;;;;;;;;10051690;28;20078;-68
2022/07/22 21:10:03;;;;;;;2.78;1.20;;;;;;;;;;10074139;28;20055;-68
2022/07/22 21:15:02;;;;;;;3.00;1.10;;;;;;;;;;10073921;28;20059;-68
2022/07/22 21:19:58;;;;;;;7.53;1.65;;;;;;;;;;10081347;28;20047;-68
2022/07/22 21:24:55;;;;;;;5.75;1.33;;;;;;;;;;10060062;28;20046;-68
2022/07/22 21:29:52;;;;;;;3.65;1.35;;;;;;;;;;10069492;28;20040;-69
2022/07/22 21:34:48;;;;;;;4.07;1.20;;;;;;;;;;10055934;28;20074;-67
2022/07/22 21:39:44;;;;;;;3.03;1.00;;;;;;;;;;10056027;28;20122;-68
2022/07/22 21:44:41;;;;;;;5.45;1.33;;;;;;;;;;10054986;28;20510;-68
2022/07/22 21:49:37;;;;;;;6.45;1.40;;;;;;;;;;10056288;28;20048;-68
2022/07/22 21:54:33;;;;;;;5.40;1.25;;;;;;;;;;10053718;28;20079;-68
2022/07/22 21:59:30;;;;;;;3.33;0.90;;;;;;;;;;10079263;28;20541;-68
2022/07/22 22:04:29;;;;;;;4.68;1.10;;;;;;;;;;10079625;28;20047;-68
2022/07/22 22:09:25;;;;;;;2.70;0.90;;;;;;;;;;10040260;28;20082;-68
2022/07/22 22:14:22;;;;;;;4.40;0.82;;;;;;;;;;10051853;28;20080;-69
2022/07/22 22:19:18;;;;;;;3.28;0.90;;;;;;;;;;10079031;28;20137;-68
2022/07/22 22:24:14;;;;;;;5.93;0.88;;;;;;;;;;10072192;28;20070;-68
2022/07/22 22:29:11;;;;;;;5.40;1.08;;;;;;;;;;10078276;28;20055;-68
2022/07/22 22:34:07;;;;;;;4.35;1.15;;;;;;;;;;10067229;28;20067;-68
2022/07/22 22:39:03;;;;;;;4.82;1.00;;;;;;;;;;10077789;28;20055;-68
2022/07/22 22:44:01;;;;;;;6.45;1.17;;;;;;;;;;10047709;28;20110;-68
2022/07/22 22:48:57;;;;;;;3.72;0.98;;;;;;;;;;10077495;28;20098;-68
2022/07/22 22:53:54;;;;;;;8.27;1.63;;;;;;;;;;10046288;28;20509;-68
2022/07/22 22:58:50;;;;;;;4.13;1.00;;;;;;;;;;10065634;28;20115;-68
2022/07/22 23:03:47;;;;;;;3.90;0.90;;;;;;;;;;10045249;28;20043;-68
2022/07/22 23:08:43;;;;;;;4.55;1.10;;;;;;;;;;10048231;28;20079;-68
2022/07/22 23:13:39;;;;;;;7.68;1.27;;;;;;;;;;10044024;28;20494;-68
2022/07/22 23:18:36;;;;;;;2.30;0.77;;;;;;;;;;10076862;28;20077;-68
2022/07/22 23:23:32;;;;;;;3.03;1.10;;;;;;;;;;10070817;28;20540;-69
2022/07/22 23:28:29;;;;;;;6.78;1.17;;;;;;;;;;10077000;28;20505;-68
2022/07/22 23:33:25;;;;;;;5.47;1.00;;;;;;;;;;10076331;28;20051;-68
2022/07/22 23:38:21;;;;;;;5.60;1.00;;;;;;;;;;10076536;28;20047;-68
2022/07/22 23:43:17;;;;;;;4.10;1.42;;;;;;;;;;10045533;28;20075;-68
2022/07/22 23:48:14;;;;;;;4.30;0.90;;;;;;;;;;10073897;28;20137;-68
2022/07/22 23:53:10;;;;;;;4.40;0.80;;;;;;;;;;10038674;28;20051;-68
2022/07/22 23:58:07;;;;;;;4.15;0.88;;;;;;;;;;10067978;28;20040;-68
